sensor_id;sensor_type;location;lat;lon;timestamp;pressure;altitude;pressure_sealevel;temperature;humidity
50977;BME280;36992;48.200;12.418;2023-02-15T00:02:26;98162.47;;;4.16;55.55
50977;BME280;36992;48.200;12.418;2023-02-15T00:04:54;98157.16;;;4.16;55.72
50977;BME280;36992;48.200;12.418;2023-02-15T00:07:21;98162.09;;;4.12;55.49
50977;BME280;36992;48.200;12.418;2023-02-15T00:09:48;98161.09;;;4.13;55.72
50977;BME280;36992;48.200;12.418;2023-02-15T00:12:15;98156.56;;;4.14;55.53
50977;BME280;36992;48.200;12.418;2023-02-15T00:14:42;98158.63;;;4.12;55.62
50977;BME280;36992;48.200;12.418;2023-02-15T00:17:08;98157.81;;;4.11;55.14
50977;BME280;36992;48.200;12.418;2023-02-15T00:19:35;98151.66;;;4.11;55.39
50977;BME280;36992;48.200;12.418;2023-02-15T00:22:04;98149.78;;;4.11;55.49
50977;BME280;36992;48.200;12.418;2023-02-15T00:24:30;98148.38;;;4.09;55.85
50977;BME280;36992;48.200;12.418;2023-02-15T00:26:57;98147.56;;;4.08;55.82
50977;BME280;36992;48.200;12.418;2023-02-15T00:29:23;98149.19;;;4.09;55.47
50977;BME280;36992;48.200;12.418;2023-02-15T00:31:50;98147.56;;;4.08;55.34
50977;BME280;36992;48.200;12.418;2023-02-15T00:34:19;98148.38;;;4.09;55.17
50977;BME280;36992;48.200;12.418;2023-02-15T00:36:46;98143.28;;;4.07;55.31
50977;BME280;36992;48.200;12.418;2023-02-15T00:39:14;98142.00;;;4.10;55.38
50977;BME280;36992;48.200;12.418;2023-02-15T00:41:41;98144.28;;;4.06;55.57
50977;BME280;36992;48.200;12.418;2023-02-15T00:44:08;98143.28;;;4.07;55.42
50977;BME280;36992;48.200;12.418;2023-02-15T00:46:35;98138.16;;;4.05;55.12
50977;BME280;36992;48.200;12.418;2023-02-15T00:49:03;98133.63;;;4.06;55.14
50977;BME280;36992;48.200;12.418;2023-02-15T00:51:30;98132.81;;;4.05;55.04
50977;BME280;36992;48.200;12.418;2023-02-15T00:53:57;98137.31;;;4.05;55.21
50977;BME280;36992;48.200;12.418;2023-02-15T00:56:25;98132.59;;;4.07;55.19
50977;BME280;36992;48.200;12.418;2023-02-15T00:58:53;98125.84;;;4.04;55.25
50977;BME280;36992;48.200;12.418;2023-02-15T01:01:20;98135.69;;;4.04;55.45
50977;BME280;36992;48.200;12.418;2023-02-15T01:03:47;98128.72;;;4.03;54.95
50977;BME280;36992;48.200;12.418;2023-02-15T01:06:14;98132.44;;;4.02;54.93
50977;BME280;36992;48.200;12.418;2023-02-15T01:08:41;98123.81;;;4.00;54.97
50977;BME280;36992;48.200;12.418;2023-02-15T01:11:10;98117.66;;;3.99;55.17
50977;BME280;36992;48.200;12.418;2023-02-15T01:13:39;98116.84;;;3.99;55.18
50977;BME280;36992;48.200;12.418;2023-02-15T01:16:06;98113.59;;;3.97;55.25
50977;BME280;36992;48.200;12.418;2023-02-15T01:18:34;98103.97;;;3.96;55.40
50977;BME280;36992;48.200;12.418;2023-02-15T01:21:09;98109.88;;;3.98;54.99
50977;BME280;36992;48.200;12.418;2023-02-15T01:23:35;98102.53;;;3.93;55.42
50977;BME280;36992;48.200;12.418;2023-02-15T01:26:02;98103.34;;;3.94;55.27
50977;BME280;36992;48.200;12.418;2023-02-15T01:28:29;98094.75;;;3.91;55.25
50977;BME280;36992;48.200;12.418;2023-02-15T01:30:57;98093.72;;;3.92;55.18
50977;BME280;36992;48.200;12.418;2023-02-15T01:33:24;98093.13;;;3.90;55.09
50977;BME280;36992;48.200;12.418;2023-02-15T01:35:56;98094.75;;;3.91;55.05
50977;BME280;36992;48.200;12.418;2023-02-15T01:38:22;98098.84;;;3.87;54.75
50977;BME280;36992;48.200;12.418;2023-02-15T01:40:50;98097.22;;;3.86;54.91
50977;BME280;36992;48.200;12.418;2023-02-15T01:43:17;98087.00;;;3.83;54.77
50977;BME280;36992;48.200;12.418;2023-02-15T01:45:45;98089.06;;;3.81;54.71
50977;BME280;36992;48.200;12.418;2023-02-15T01:48:19;98086.63;;;3.80;54.98
50977;BME280;36992;48.200;12.418;2023-02-15T01:50:49;98084.16;;;3.78;55.28
50977;BME280;36992;48.200;12.418;2023-02-15T01:53:20;98080.91;;;3.76;55.13
50977;BME280;36992;48.200;12.418;2023-02-15T01:55:50;98079.88;;;3.77;55.40
50977;BME280;36992;48.200;12.418;2023-02-15T01:58:19;98068.00;;;3.73;55.24
50977;BME280;36992;48.200;12.418;2023-02-15T02:00:47;98066.34;;;3.72;55.21
50977;BME280;36992;48.200;12.418;2023-02-15T02:03:14;98065.31;;;3.73;54.86
50977;BME280;36992;48.200;12.418;2023-02-15T02:05:42;98061.63;;;3.74;55.39
50977;BME280;36992;48.200;12.418;2023-02-15T02:08:09;98063.09;;;3.70;55.51
50977;BME280;36992;48.200;12.418;2023-02-15T02:10:36;98068.63;;;3.68;55.42
50977;BME280;36992;48.200;12.418;2023-02-15T02:13:04;98061.22;;;3.70;55.38
50977;BME280;36992;48.200;12.418;2023-02-15T02:15:39;98064.72;;;3.71;55.25
50977;BME280;36992;48.200;12.418;2023-02-15T02:18:18;98068.19;;;3.71;54.75
50977;BME280;36992;48.200;12.418;2023-02-15T02:24:10;98064.94;;;3.69;54.80
50977;BME280;36992;48.200;12.418;2023-02-15T02:27:14;98067.81;;;3.68;54.65
50977;BME280;36992;48.200;12.418;2023-02-15T02:29:55;98063.34;;;3.61;54.93
50977;BME280;36992;48.200;12.418;2023-02-15T02:33:08;98056.38;;;3.60;54.90
50977;BME280;36992;48.200;12.418;2023-02-15T02:35:43;98048.19;;;3.55;55.17
50977;BME280;36992;48.200;12.418;2023-02-15T02:38:19;98055.16;;;3.56;55.17
50977;BME280;36992;48.200;12.418;2023-02-15T02:40:52;98037.53;;;3.55;55.57
50977;BME280;36992;48.200;12.418;2023-02-15T02:43:25;98039.16;;;3.56;55.65
50977;BME280;36992;48.200;12.418;2023-02-15T02:45:57;98037.13;;;3.58;55.18
50977;BME280;36992;48.200;12.418;2023-02-15T02:48:27;98041.63;;;3.58;55.32
50977;BME280;36992;48.200;12.418;2023-02-15T02:50:55;98037.53;;;3.55;55.24
50977;BME280;36992;48.200;12.418;2023-02-15T02:53:22;98034.88;;;3.55;55.61
50977;BME280;36992;48.200;12.418;2023-02-15T02:55:52;98040.59;;;3.59;55.57
50977;BME280;36992;48.200;12.418;2023-02-15T02:58:24;98029.94;;;3.59;55.20
50977;BME280;36992;48.200;12.418;2023-02-15T03:00:54;98028.09;;;3.59;55.28
50977;BME280;36992;48.200;12.418;2023-02-15T03:03:27;98022.75;;;3.59;55.54
50977;BME280;36992;48.200;12.418;2023-02-15T03:05:58;98025.22;;;3.61;55.38
50977;BME280;36992;48.200;12.418;2023-02-15T03:08:31;98026.03;;;3.61;55.02
50977;BME280;36992;48.200;12.418;2023-02-15T03:11:02;98017.44;;;3.59;55.40
50977;BME280;36992;48.200;12.418;2023-02-15T03:13:29;98022.38;;;3.56;55.52
50977;BME280;36992;48.200;12.418;2023-02-15T03:15:56;98016.22;;;3.55;55.34
50977;BME280;36992;48.200;12.418;2023-02-15T03:18:45;98024.00;;;3.57;55.33
50977;BME280;36992;48.200;12.418;2023-02-15T03:21:19;98027.72;;;3.56;55.46
50977;BME280;36992;48.200;12.418;2023-02-15T03:23:50;98028.50;;;3.56;55.60
50977;BME280;36992;48.200;12.418;2023-02-15T03:26:20;98030.16;;;3.57;55.61
50977;BME280;36992;48.200;12.418;2023-02-15T03:28:50;98035.50;;;3.57;55.59
50977;BME280;36992;48.200;12.418;2023-02-15T03:31:18;98033.84;;;3.56;55.61
50977;BME280;36992;48.200;12.418;2023-02-15T03:33:51;98037.94;;;3.59;55.53
50977;BME280;36992;48.200;12.418;2023-02-15T03:36:20;98023.81;;;3.58;55.53
50977;BME280;36992;48.200;12.418;2023-02-15T03:38:52;98026.25;;;3.60;55.47
50977;BME280;36992;48.200;12.418;2023-02-15T03:41:24;98025.16;;;3.68;55.03
50977;BME280;36992;48.200;12.418;2023-02-15T03:43:55;98025.44;;;3.59;55.29
50977;BME280;36992;48.200;12.418;2023-02-15T03:46:26;98019.50;;;3.57;55.11
50977;BME280;36992;48.200;12.418;2023-02-15T03:48:58;98017.84;;;3.56;55.32
50977;BME280;36992;48.200;12.418;2023-02-15T03:51:29;98027.91;;;3.54;55.30
50977;BME280;36992;48.200;12.418;2023-02-15T03:54:03;98024.44;;;3.54;55.14
50977;BME280;36992;48.200;12.418;2023-02-15T03:56:31;98017.91;;;3.49;55.26
50977;BME280;36992;48.200;12.418;2023-02-15T03:58:59;98024.03;;;3.50;55.63
50977;BME280;36992;48.200;12.418;2023-02-15T04:01:48;98020.13;;;3.53;55.50
50977;BME280;36992;48.200;12.418;2023-02-15T04:04:32;98022.00;;;3.52;55.39
50977;BME280;36992;48.200;12.418;2023-02-15T04:06:59;98026.69;;;3.50;55.43
50977;BME280;36992;48.200;12.418;2023-02-15T04:09:26;98024.03;;;3.50;55.52
50977;BME280;36992;48.200;12.418;2023-02-15T04:12:10;98025.69;;;3.51;55.41
50977;BME280;36992;48.200;12.418;2023-02-15T04:14:37;98022.41;;;3.49;54.88
50977;BME280;36992;48.200;12.418;2023-02-15T04:17:21;98020.97;;;3.46;54.78
50977;BME280;36992;48.200;12.418;2023-02-15T04:19:49;98014.22;;;3.44;55.10
50977;BME280;36992;48.200;12.418;2023-02-15T04:22:33;98019.16;;;3.40;55.38
50977;BME280;36992;48.200;12.418;2023-02-15T04:25:17;98014.28;;;3.37;55.36
50977;BME280;36992;48.200;12.418;2023-02-15T04:27:45;98019.81;;;3.35;55.69
50977;BME280;36992;48.200;12.418;2023-02-15T04:30:13;98015.72;;;3.33;55.63
50977;BME280;36992;48.200;12.418;2023-02-15T04:32:40;98012.25;;;3.32;55.85
50977;BME280;36992;48.200;12.418;2023-02-15T04:35:08;98020.84;;;3.34;55.75
50977;BME280;36992;48.200;12.418;2023-02-15T04:37:35;98021.88;;;3.33;55.86
50977;BME280;36992;48.200;12.418;2023-02-15T04:40:02;98024.56;;;3.33;55.72
50977;BME280;36992;48.200;12.418;2023-02-15T04:42:28;98028.84;;;3.34;55.93
50977;BME280;36992;48.200;12.418;2023-02-15T04:44:55;98025.16;;;3.35;55.73
50977;BME280;36992;48.200;12.418;2023-02-15T04:47:21;98024.34;;;3.35;55.64
50977;BME280;36992;48.200;12.418;2023-02-15T04:49:48;98023.31;;;3.36;55.62
50977;BME280;36992;48.200;12.418;2023-02-15T04:52:16;98026.78;;;3.36;55.57
50977;BME280;36992;48.200;12.418;2023-02-15T04:54:43;98032.09;;;3.36;55.55
50977;BME280;36992;48.200;12.418;2023-02-15T04:57:10;98025.97;;;3.36;55.47
50977;BME280;36992;48.200;12.418;2023-02-15T04:59:36;98030.47;;;3.35;55.42
50977;BME280;36992;48.200;12.418;2023-02-15T05:02:03;98028.25;;;3.32;55.61
50977;BME280;36992;48.200;12.418;2023-02-15T05:04:30;98033.56;;;3.32;55.42
50977;BME280;36992;48.200;12.418;2023-02-15T05:06:56;98031.91;;;3.31;55.46
50977;BME280;36992;48.200;12.418;2023-02-15T05:09:24;98033.56;;;3.32;55.61
50977;BME280;36992;48.200;12.418;2023-02-15T05:11:51;98037.25;;;3.31;55.52
50977;BME280;36992;48.200;12.418;2023-02-15T05:14:17;98036.44;;;3.31;55.56
50977;BME280;36992;48.200;12.418;2023-02-15T05:16:44;98037.25;;;3.31;55.78
50977;BME280;36992;48.200;12.418;2023-02-15T05:19:10;98033.56;;;3.32;55.61
50977;BME280;36992;48.200;12.418;2023-02-15T05:21:37;98036.25;;;3.32;55.43
50977;BME280;36992;48.200;12.418;2023-02-15T05:24:04;98037.03;;;3.33;55.67
50977;BME280;36992;48.200;12.418;2023-02-15T05:26:52;98047.50;;;3.34;55.51
50977;BME280;36992;48.200;12.418;2023-02-15T05:29:36;98050.34;;;3.33;55.46
50977;BME280;36992;48.200;12.418;2023-02-15T05:32:02;98059.19;;;3.33;55.68
50977;BME280;36992;48.200;12.418;2023-02-15T05:34:30;98054.44;;;3.35;55.73
50977;BME280;36992;48.200;12.418;2023-02-15T05:36:56;98059.78;;;3.35;55.84
50977;BME280;36992;48.200;12.418;2023-02-15T05:39:23;98066.53;;;3.38;55.69
50977;BME280;36992;48.200;12.418;2023-02-15T05:41:51;98061.78;;;3.40;55.62
50977;BME280;36992;48.200;12.418;2023-02-15T05:44:17;98066.91;;;3.42;55.60
50977;BME280;36992;48.200;12.418;2023-02-15T05:46:44;98069.16;;;3.45;55.21
50977;BME280;36992;48.200;12.418;2023-02-15T05:49:10;98068.94;;;3.46;55.29
50977;BME280;36992;48.200;12.418;2023-02-15T05:51:37;98069.78;;;3.47;55.24
50977;BME280;36992;48.200;12.418;2023-02-15T05:54:04;98071.41;;;3.48;55.23
50977;BME280;36992;48.200;12.418;2023-02-15T05:56:30;98068.72;;;3.48;55.35
50977;BME280;36992;48.200;12.418;2023-02-15T05:58:58;98072.00;;;3.50;55.17
50977;BME280;36992;48.200;12.418;2023-02-15T06:01:25;98071.41;;;3.48;55.21
50977;BME280;36992;48.200;12.418;2023-02-15T06:03:51;98068.72;;;3.48;54.94
50977;BME280;36992;48.200;12.418;2023-02-15T06:06:19;98067.94;;;3.47;55.17
50977;BME280;36992;48.200;12.418;2023-02-15T06:08:45;98061.78;;;3.47;55.06
50977;BME280;36992;48.200;12.418;2023-02-15T06:11:12;98072.44;;;3.47;55.33
50977;BME280;36992;48.200;12.418;2023-02-15T06:13:39;98066.28;;;3.46;55.11
50977;BME280;36992;48.200;12.418;2023-02-15T06:16:07;98075.09;;;3.47;55.16
50977;BME280;36992;48.200;12.418;2023-02-15T06:18:33;98069.97;;;3.45;54.99
50977;BME280;36992;48.200;12.418;2023-02-15T06:21:00;98063.84;;;3.45;55.05
50977;BME280;36992;48.200;12.418;2023-02-15T06:23:27;98069.16;;;3.45;55.24
50977;BME280;36992;48.200;12.418;2023-02-15T06:25:54;98074.50;;;3.45;54.68
50977;BME280;36992;48.200;12.418;2023-02-15T06:28:20;98074.50;;;3.45;54.45
50977;BME280;36992;48.200;12.418;2023-02-15T06:30:47;98070.63;;;3.41;54.88
50977;BME280;36992;48.200;12.418;2023-02-15T06:33:15;98076.78;;;3.41;55.32
50977;BME280;36992;48.200;12.418;2023-02-15T06:35:41;98079.00;;;3.37;55.30
50977;BME280;36992;48.200;12.418;2023-02-15T06:38:08;98073.69;;;3.37;55.16
50977;BME280;36992;48.200;12.418;2023-02-15T06:40:35;98075.56;;;3.37;55.14
50977;BME280;36992;48.200;12.418;2023-02-15T06:43:01;98076.34;;;3.37;54.98
50977;BME280;36992;48.200;12.418;2023-02-15T06:45:28;98080.06;;;3.36;55.33
50977;BME280;36992;48.200;12.418;2023-02-15T06:47:55;98085.38;;;3.36;55.16
50977;BME280;36992;48.200;12.418;2023-02-15T06:50:22;98085.19;;;3.38;55.17
50977;BME280;36992;48.200;12.418;2023-02-15T06:52:49;98082.72;;;3.36;55.53
50977;BME280;36992;48.200;12.418;2023-02-15T06:55:15;98084.34;;;3.37;55.18
50977;BME280;36992;48.200;12.418;2023-02-15T06:57:42;98089.66;;;3.37;55.18
50977;BME280;36992;48.200;12.418;2023-02-15T07:00:09;98091.53;;;3.37;54.97
50977;BME280;36992;48.200;12.418;2023-02-15T07:02:36;98089.66;;;3.37;55.16
50977;BME280;36992;48.200;12.418;2023-02-15T07:05:03;98088.03;;;3.36;55.19
50977;BME280;36992;48.200;12.418;2023-02-15T07:07:32;98088.44;;;3.40;54.83
50977;BME280;36992;48.200;12.418;2023-02-15T07:09:58;98090.72;;;3.36;55.30
50977;BME280;36992;48.200;12.418;2023-02-15T07:12:25;98093.38;;;3.36;54.88
50977;BME280;36992;48.200;12.418;2023-02-15T07:15:07;98095.22;;;3.36;55.32
50977;BME280;36992;48.200;12.418;2023-02-15T07:17:35;98093.59;;;3.35;55.02
50977;BME280;36992;48.200;12.418;2023-02-15T07:20:02;98085.63;;;3.35;55.20
50977;BME280;36992;48.200;12.418;2023-02-15T07:22:28;98086.41;;;3.35;55.17
50977;BME280;36992;48.200;12.418;2023-02-15T07:24:56;98084.34;;;3.37;55.16
50977;BME280;36992;48.200;12.418;2023-02-15T07:27:23;98084.34;;;3.37;54.96
50977;BME280;36992;48.200;12.418;2023-02-15T07:29:49;98089.66;;;3.37;54.90
50977;BME280;36992;48.200;12.418;2023-02-15T07:32:16;98089.66;;;3.37;54.90
50977;BME280;36992;48.200;12.418;2023-02-15T07:34:42;98088.03;;;3.36;55.02
50977;BME280;36992;48.200;12.418;2023-02-15T07:37:09;98081.69;;;3.37;55.19
50977;BME280;36992;48.200;12.418;2023-02-15T07:39:35;98079.00;;;3.37;55.16
50977;BME280;36992;48.200;12.418;2023-02-15T07:42:04;98083.09;;;3.40;55.24
50977;BME280;36992;48.200;12.418;2023-02-15T07:44:30;98083.09;;;3.40;55.08
50977;BME280;36992;48.200;12.418;2023-02-15T07:46:57;98077.78;;;3.40;54.92
50977;BME280;36992;48.200;12.418;2023-02-15T07:49:23;98084.75;;;3.41;55.13
50977;BME280;36992;48.200;12.418;2023-02-15T07:51:50;98082.91;;;3.42;54.72
50977;BME280;36992;48.200;12.418;2023-02-15T07:54:17;98079.19;;;3.43;54.61
50977;BME280;36992;48.200;12.418;2023-02-15T07:56:43;98076.53;;;3.43;54.82
50977;BME280;36992;48.200;12.418;2023-02-15T07:59:11;98080.84;;;3.44;54.88
50977;BME280;36992;48.200;12.418;2023-02-15T08:01:38;98083.72;;;3.42;54.80
50977;BME280;36992;48.200;12.418;2023-02-15T08:04:06;98075.75;;;3.42;54.48
50977;BME280;36992;48.200;12.418;2023-02-15T08:06:35;98084.53;;;3.43;53.91
50977;BME280;36992;48.200;12.418;2023-02-15T08:09:03;98077.78;;;3.40;53.96
50977;BME280;36992;48.200;12.418;2023-02-15T08:11:32;98082.72;;;3.36;54.64
50977;BME280;36992;48.200;12.418;2023-02-15T08:14:06;98085.38;;;3.36;54.77
50977;BME280;36992;48.200;12.418;2023-02-15T08:16:36;98082.72;;;3.36;54.78
50977;BME280;36992;48.200;12.418;2023-02-15T08:19:06;98087.25;;;3.36;54.76
50977;BME280;36992;48.200;12.418;2023-02-15T08:21:34;98084.19;;;3.32;54.78
50977;BME280;36992;48.200;12.418;2023-02-15T08:24:01;98081.53;;;3.32;55.04
50977;BME280;36992;48.200;12.418;2023-02-15T08:26:29;98077.81;;;3.33;55.09
50977;BME280;36992;48.200;12.418;2023-02-15T08:28:57;98072.50;;;3.33;55.27
50977;BME280;36992;48.200;12.418;2023-02-15T08:31:23;98075.16;;;3.33;55.01
50977;BME280;36992;48.200;12.418;2023-02-15T08:33:54;98071.66;;;3.40;54.95
50977;BME280;36992;48.200;12.418;2023-02-15T08:36:23;98069.59;;;3.42;54.84
50977;BME280;36992;48.200;12.418;2023-02-15T08:38:50;98070.41;;;3.42;54.97
50977;BME280;36992;48.200;12.418;2023-02-15T08:41:19;98064.66;;;3.45;54.98
50977;BME280;36992;48.200;12.418;2023-02-15T08:43:47;98068.72;;;3.48;54.96
50977;BME280;36992;48.200;12.418;2023-02-15T08:46:18;98069.56;;;3.48;54.82
50977;BME280;36992;48.200;12.418;2023-02-15T08:48:45;98066.66;;;3.50;54.76
50977;BME280;36992;48.200;12.418;2023-02-15T08:51:15;98066.25;;;3.53;54.93
50977;BME280;36992;48.200;12.418;2023-02-15T08:53:43;98063.78;;;3.51;55.13
50977;BME280;36992;48.200;12.418;2023-02-15T08:56:10;98071.59;;;3.53;54.98
50977;BME280;36992;48.200;12.418;2023-02-15T08:58:38;98080.16;;;3.55;55.04
50977;BME280;36992;48.200;12.418;2023-02-15T09:01:09;98074.44;;;3.58;55.05
50977;BME280;36992;48.200;12.418;2023-02-15T09:03:35;98076.25;;;3.58;54.98
50977;BME280;36992;48.200;12.418;2023-02-15T09:06:02;98074.22;;;3.60;54.66
50977;BME280;36992;48.200;12.418;2023-02-15T09:08:30;98067.41;;;3.64;55.06
50977;BME280;36992;48.200;12.418;2023-02-15T09:11:05;98069.88;;;3.66;54.61
50977;BME280;36992;48.200;12.418;2023-02-15T09:13:32;98067.22;;;3.66;54.74
50977;BME280;36992;48.200;12.418;2023-02-15T09:16:00;98073.56;;;3.64;54.75
50977;BME280;36992;48.200;12.418;2023-02-15T09:18:26;98067.41;;;3.64;54.83
50977;BME280;36992;48.200;12.418;2023-02-15T09:20:53;98067.41;;;3.64;54.94
50977;BME280;36992;48.200;12.418;2023-02-15T09:23:20;98063.50;;;3.67;54.70
50977;BME280;36992;48.200;12.418;2023-02-15T09:25:48;98062.47;;;3.68;54.78
50977;BME280;36992;48.200;12.418;2023-02-15T09:28:14;98062.47;;;3.68;54.65
50977;BME280;36992;48.200;12.418;2023-02-15T09:30:41;98062.47;;;3.68;54.71
50977;BME280;36992;48.200;12.418;2023-02-15T09:33:08;98061.44;;;3.69;54.69
50977;BME280;36992;48.200;12.418;2023-02-15T09:35:34;98063.09;;;3.70;54.59
50977;BME280;36992;48.200;12.418;2023-02-15T09:38:01;98059.19;;;3.72;54.67
50977;BME280;36992;48.200;12.418;2023-02-15T09:40:32;98056.91;;;3.76;54.71
50977;BME280;36992;48.200;12.418;2023-02-15T09:43:24;98053.22;;;3.77;54.68
50977;BME280;36992;48.200;12.418;2023-02-15T09:46:06;98066.34;;;3.78;54.70
50977;BME280;36992;48.200;12.418;2023-02-15T09:48:41;98066.09;;;3.80;54.62
50977;BME280;36992;48.200;12.418;2023-02-15T09:51:28;98059.53;;;3.83;54.53
50977;BME280;36992;48.200;12.418;2023-02-15T09:54:09;98058.72;;;3.82;54.40
50977;BME280;36992;48.200;12.418;2023-02-15T09:56:41;98055.44;;;3.80;54.52
50977;BME280;36992;48.200;12.418;2023-02-15T09:59:19;98055.03;;;3.83;54.77
50977;BME280;36992;48.200;12.418;2023-02-15T10:01:59;98049.69;;;3.83;54.50
50977;BME280;36992;48.200;12.418;2023-02-15T10:04:43;98050.28;;;3.85;54.81
50977;BME280;36992;48.200;12.418;2023-02-15T10:07:25;98052.94;;;3.85;54.95
50977;BME280;36992;48.200;12.418;2023-02-15T10:10:06;98054.56;;;3.86;54.87
50977;BME280;36992;48.200;12.418;2023-02-15T10:12:47;98051.09;;;3.86;55.00
50977;BME280;36992;48.200;12.418;2023-02-15T10:15:38;98044.28;;;3.90;54.63
50977;BME280;36992;48.200;12.418;2023-02-15T10:21:08;98052.66;;;3.94;54.57
50977;BME280;36992;48.200;12.418;2023-02-15T10:23:47;98052.91;;;3.92;54.53
50977;BME280;36992;48.200;12.418;2023-02-15T10:26:19;98046.75;;;3.91;54.39
50977;BME280;36992;48.200;12.418;2023-02-15T10:28:49;98045.94;;;3.91;54.64
50977;BME280;36992;48.200;12.418;2023-02-15T10:31:23;98044.66;;;3.94;54.80
50977;BME280;36992;48.200;12.418;2023-02-15T10:34:06;98040.75;;;3.96;54.87
50977;BME280;36992;48.200;12.418;2023-02-15T10:36:52;98043.22;;;3.98;54.84
50977;BME280;36992;48.200;12.418;2023-02-15T10:39:28;98045.88;;;3.98;54.55
50977;BME280;36992;48.200;12.418;2023-02-15T10:42:05;98043.81;;;4.00;54.65
50977;BME280;36992;48.200;12.418;2023-02-15T10:44:38;98037.19;;;4.09;54.37
50977;BME280;36992;48.200;12.418;2023-02-15T10:47:25;98036.59;;;4.07;54.46
50977;BME280;36992;48.200;12.418;2023-02-15T10:50:09;98037.19;;;4.09;54.60
50977;BME280;36992;48.200;12.418;2023-02-15T10:52:43;98022.00;;;4.10;54.45
50977;BME280;36992;48.200;12.418;2023-02-15T10:55:20;98020.75;;;4.12;54.99
50977;BME280;36992;48.200;12.418;2023-02-15T10:57:56;98018.69;;;4.14;54.79
50977;BME280;36992;48.200;12.418;2023-02-15T11:00:29;98016.63;;;4.16;54.67
50977;BME280;36992;48.200;12.418;2023-02-15T11:03:16;98017.81;;;4.21;54.48
50977;BME280;36992;48.200;12.418;2023-02-15T11:05:56;98010.41;;;4.23;54.43
50977;BME280;36992;48.200;12.418;2023-02-15T11:08:29;98004.03;;;4.24;54.18
50977;BME280;36992;48.200;12.418;2023-02-15T11:11:00;98001.38;;;4.24;54.01
50977;BME280;36992;48.200;12.418;2023-02-15T11:13:32;97997.06;;;4.23;54.29
50977;BME280;36992;48.200;12.418;2023-02-15T11:16:02;97994.63;;;4.21;54.65
50977;BME280;36992;48.200;12.418;2023-02-15T11:18:36;97990.69;;;4.24;54.63
50977;BME280;36992;48.200;12.418;2023-02-15T11:21:07;97993.16;;;4.25;54.54
50977;BME280;36992;48.200;12.418;2023-02-15T11:23:41;97995.38;;;4.28;54.74
50977;BME280;36992;48.200;12.418;2023-02-15T11:26:13;97989.81;;;4.30;54.66
50977;BME280;36992;48.200;12.418;2023-02-15T11:28:43;97992.06;;;4.33;54.94
50977;BME280;36992;48.200;12.418;2023-02-15T11:31:13;97996.13;;;4.36;54.62
50977;BME280;36992;48.200;12.418;2023-02-15T11:33:46;97992.81;;;4.40;54.40
50977;BME280;36992;48.200;12.418;2023-02-15T11:36:17;97989.69;;;4.43;54.59
50977;BME280;36992;48.200;12.418;2023-02-15T11:38:46;97982.28;;;4.45;54.38
50977;BME280;36992;48.200;12.418;2023-02-15T11:41:19;97977.13;;;4.51;54.53
50977;BME280;36992;48.200;12.418;2023-02-15T11:43:53;97978.13;;;4.50;54.07
50977;BME280;36992;48.200;12.418;2023-02-15T11:46:21;97976.50;;;4.49;54.59
50977;BME280;36992;48.200;12.418;2023-02-15T11:48:49;97969.09;;;4.51;54.38
50977;BME280;36992;48.200;12.418;2023-02-15T11:51:18;97968.50;;;4.49;54.15
50977;BME280;36992;48.200;12.418;2023-02-15T11:53:46;97973.25;;;4.47;54.43
50977;BME280;36992;48.200;12.418;2023-02-15T11:56:15;97966.88;;;4.48;54.11
50977;BME280;36992;48.200;12.418;2023-02-15T11:58:45;97962.56;;;4.47;54.51
50977;BME280;36992;48.200;12.418;2023-02-15T12:01:16;97956.19;;;4.48;54.48
50977;BME280;36992;48.200;12.418;2023-02-15T12:03:49;97956.19;;;4.48;54.67
50977;BME280;36992;48.200;12.418;2023-02-15T12:06:22;97956.56;;;4.51;55.01
50977;BME280;36992;48.200;12.418;2023-02-15T12:08:55;97957.97;;;4.54;54.78
50977;BME280;36992;48.200;12.418;2023-02-15T12:11:31;97955.88;;;4.56;54.90
50977;BME280;36992;48.200;12.418;2023-02-15T12:14:01;97947.28;;;4.54;54.81
50977;BME280;36992;48.200;12.418;2023-02-15T12:16:32;97941.53;;;4.57;55.09
50977;BME280;36992;48.200;12.418;2023-02-15T12:19:01;97936.19;;;4.57;54.65
50977;BME280;36992;48.200;12.418;2023-02-15T12:21:30;97935.72;;;4.60;54.72
50977;BME280;36992;48.200;12.418;2023-02-15T12:24:03;97942.25;;;4.64;54.53
50977;BME280;36992;48.200;12.418;2023-02-15T12:26:31;97936.78;;;4.59;54.41
50977;BME280;36992;48.200;12.418;2023-02-15T12:29:00;97933.97;;;4.54;54.47
50977;BME280;36992;48.200;12.418;2023-02-15T12:31:31;97934.16;;;4.52;54.50
50977;BME280;36992;48.200;12.418;2023-02-15T12:34:02;97928.47;;;4.49;54.86
50977;BME280;36992;48.200;12.418;2023-02-15T12:36:33;97931.34;;;4.47;54.96
50977;BME280;36992;48.200;12.418;2023-02-15T12:39:19;97921.72;;;4.46;55.15
50977;BME280;36992;48.200;12.418;2023-02-15T12:41:59;97920.66;;;4.47;54.96
50977;BME280;36992;48.200;12.418;2023-02-15T12:44:27;97915.59;;;4.45;55.48
50977;BME280;36992;48.200;12.418;2023-02-15T12:47:00;97913.88;;;4.51;55.22
50977;BME280;36992;48.200;12.418;2023-02-15T12:49:29;97912.59;;;4.54;55.45
50977;BME280;36992;48.200;12.418;2023-02-15T12:51:57;97905.66;;;4.53;55.48
50977;BME280;36992;48.200;12.418;2023-02-15T12:54:38;97913.56;;;4.59;54.96
50977;BME280;36992;48.200;12.418;2023-02-15T12:57:23;97910.88;;;4.59;54.74
50977;BME280;36992;48.200;12.418;2023-02-15T12:59:52;97907.41;;;4.59;54.92
50977;BME280;36992;48.200;12.418;2023-02-15T13:02:24;97896.75;;;4.59;55.12
50977;BME280;36992;48.200;12.418;2023-02-15T13:04:53;97895.69;;;4.60;55.46
50977;BME280;36992;48.200;12.418;2023-02-15T13:07:21;97886.66;;;4.61;55.52
50977;BME280;36992;48.200;12.418;2023-02-15T13:09:49;97885.38;;;4.64;55.63
50977;BME280;36992;48.200;12.418;2023-02-15T13:12:20;97882.88;;;4.69;55.65
50977;BME280;36992;48.200;12.418;2023-02-15T13:14:48;97884.28;;;4.71;55.68
50977;BME280;36992;48.200;12.418;2023-02-15T13:17:19;97879.88;;;4.77;54.89
50977;BME280;36992;48.200;12.418;2023-02-15T13:19:51;97882.31;;;4.79;55.17
50977;BME280;36992;48.200;12.418;2023-02-15T13:22:24;97873.88;;;4.82;55.08
50977;BME280;36992;48.200;12.418;2023-02-15T13:24:55;97864.81;;;4.83;55.04